createdAt,value
2023-10-10T00:00:01.313Z,4.00
2023-10-10T00:02:30.362Z,4.38
2023-10-10T00:05:04.895Z,2.85
2023-10-10T00:07:36.329Z,2.80
2023-10-10T00:10:04.887Z,3.10
2023-10-10T00:12:36.501Z,3.88
2023-10-10T00:15:07.028Z,3.88
2023-10-10T00:17:42.658Z,3.30
2023-10-10T00:20:31.136Z,4.47
2023-10-10T00:23:05.755Z,2.97
2023-10-10T00:25:33.799Z,3.85
2023-10-10T00:28:06.782Z,2.88
2023-10-10T00:30:44.834Z,3.90
2023-10-10T00:33:17.431Z,3.78
2023-10-10T00:35:46.296Z,3.05
2023-10-10T00:40:49.075Z,4.07
2023-10-10T00:43:18.477Z,3.00
2023-10-10T00:45:53.575Z,3.63
2023-10-10T00:51:07.496Z,3.22
2023-10-10T00:53:37.317Z,3.65
2023-10-10T00:56:08.913Z,3.70
2023-10-10T00:58:38.661Z,3.47
2023-10-10T01:01:10.941Z,2.72
2023-10-10T01:03:50.908Z,4.07
2023-10-10T01:06:26.133Z,3.20
2023-10-10T01:09:14.795Z,3.00
2023-10-10T01:11:44.527Z,3.17
2023-10-10T01:14:19.726Z,3.78
2023-10-10T01:16:49.251Z,3.45
2023-10-10T01:19:19.527Z,3.13
2023-10-10T01:21:52.146Z,3.10
2023-10-10T01:24:23.103Z,4.07
2023-10-10T01:26:52.466Z,2.67
2023-10-10T01:29:28.082Z,2.80
2023-10-10T01:32:00.363Z,3.60
2023-10-10T01:34:45.164Z,2.72
2023-10-10T01:37:28.942Z,2.53
2023-10-10T01:40:20.715Z,2.53
2023-10-10T01:43:00.791Z,2.08
2023-10-10T01:45:28.964Z,2.50
2023-10-10T01:48:04.322Z,2.47
2023-10-10T01:50:32.405Z,2.55
2023-10-10T01:53:01.580Z,2.67
2023-10-10T01:55:29.480Z,3.60
2023-10-10T01:58:03.532Z,2.83
2023-10-10T02:00:35.888Z,2.80
2023-10-10T02:03:05.546Z,2.60
2023-10-10T02:08:27.075Z,2.50
2023-10-10T02:10:57.120Z,2.75
2023-10-10T02:13:26.824Z,2.60
2023-10-10T02:15:54.727Z,2.22
2023-10-10T02:18:39.323Z,2.05
2023-10-10T02:21:16.880Z,2.30
2023-10-10T02:23:48.274Z,1.77
2023-10-10T02:26:25.294Z,1.58
2023-10-10T02:29:13.784Z,2.13
2023-10-10T02:31:43.666Z,1.70
2023-10-10T02:34:12.430Z,2.05
2023-10-10T02:36:42.480Z,1.83
2023-10-10T02:39:30.874Z,1.73
2023-10-10T02:42:04.232Z,1.90
2023-10-10T02:47:53.962Z,2.17
2023-10-10T02:50:41.284Z,1.27
2023-10-10T02:53:10.661Z,2.00
2023-10-10T02:55:42.991Z,2.20
2023-10-10T02:58:23.151Z,2.65
2023-10-10T03:00:53.015Z,2.20
2023-10-10T03:03:21.536Z,1.73
2023-10-10T03:05:55.439Z,1.52
2023-10-10T03:08:33.811Z,2.40
2023-10-10T03:11:16.545Z,2.20
2023-10-10T03:13:55.626Z,1.95
2023-10-10T03:16:24.485Z,2.22
2023-10-10T03:19:01.694Z,2.80
2023-10-10T03:21:48.643Z,1.67
2023-10-10T03:24:37.885Z,2.22
2023-10-10T03:27:20.830Z,2.05
2023-10-10T03:29:51.285Z,2.05
2023-10-10T03:32:34.751Z,2.60
2023-10-10T03:35:07.946Z,1.70
2023-10-10T03:37:55.880Z,2.63
2023-10-10T03:40:49.639Z,1.50
2023-10-10T03:43:36.312Z,2.65
2023-10-10T03:46:23.606Z,1.77
2023-10-10T03:49:18.422Z,1.60
2023-10-10T03:52:04.827Z,1.40
2023-10-10T03:54:51.258Z,3.20
2023-10-10T03:57:37.574Z,1.95
2023-10-10T04:00:24.732Z,2.45
2023-10-10T04:03:11.584Z,1.70
2023-10-10T04:05:58.226Z,2.78
2023-10-10T04:08:45.052Z,4.88
2023-10-10T04:11:32.491Z,3.03
2023-10-10T04:14:19.326Z,3.13
2023-10-10T04:17:06.036Z,3.60
2023-10-10T04:19:52.714Z,3.47
2023-10-10T04:22:39.048Z,2.85
2023-10-10T04:25:25.948Z,3.35
2023-10-10T04:28:12.745Z,3.53
2023-10-10T04:30:59.010Z,2.92
2023-10-10T04:33:45.384Z,2.83
2023-10-10T04:36:31.764Z,1.92
2023-10-10T04:39:17.966Z,2.47
2023-10-10T04:42:12.339Z,1.55
2023-10-10T04:44:58.917Z,2.10
2023-10-10T04:47:45.655Z,1.48
2023-10-10T04:50:32.374Z,1.65
2023-10-10T04:53:19.124Z,1.83
2023-10-10T04:56:05.854Z,1.55
2023-10-10T04:58:52.067Z,2.05
2023-10-10T05:01:38.646Z,2.25
2023-10-10T05:04:33.121Z,1.85
2023-10-10T05:07:19.853Z,1.70
2023-10-10T05:10:06.301Z,2.72
2023-10-10T05:12:52.601Z,3.38
2023-10-10T05:15:39.572Z,2.35
2023-10-10T05:18:26.607Z,2.75
2023-10-10T05:23:49.174Z,2.97
2023-10-10T05:26:21.227Z,2.08
2023-10-10T05:28:50.057Z,2.50
2023-10-10T05:31:22.751Z,3.67
2023-10-10T05:33:52.343Z,2.05
2023-10-10T05:36:20.793Z,2.30
2023-10-10T05:38:51.893Z,2.55
2023-10-10T05:41:21.202Z,2.35
2023-10-10T05:43:52.559Z,2.58
2023-10-10T05:46:20.796Z,2.97
2023-10-10T05:48:48.749Z,2.30
2023-10-10T05:51:16.806Z,2.63
2023-10-10T05:53:47.850Z,2.22
2023-10-10T05:56:18.008Z,2.45
2023-10-10T05:58:48.603Z,2.25
2023-10-10T06:01:18.696Z,2.20
2023-10-10T06:03:47.092Z,2.63
2023-10-10T06:06:17.264Z,2.00
2023-10-10T06:08:46.507Z,3.28
2023-10-10T06:11:18.394Z,2.00
2023-10-10T06:13:48.067Z,2.72
2023-10-10T06:16:17.362Z,2.50
2023-10-10T06:18:48.122Z,1.77
2023-10-10T06:21:16.687Z,2.42
2023-10-10T06:23:46.363Z,3.15
2023-10-10T06:26:15.613Z,4.55
2023-10-10T06:28:47.037Z,2.55
2023-10-10T06:31:21.918Z,2.33
2023-10-10T06:33:57.886Z,1.58
2023-10-10T06:36:26.054Z,4.80
2023-10-10T06:39:05.926Z,1.77
2023-10-10T06:41:48.027Z,2.33
2023-10-10T06:44:16.704Z,2.05
2023-10-10T06:46:50.270Z,13.90
2023-10-10T06:49:22.472Z,2.30
2023-10-10T06:51:51.522Z,1.73
2023-10-10T06:54:29.093Z,2.97
2023-10-10T06:57:01.625Z,2.00
2023-10-10T06:59:31.089Z,1.98
2023-10-10T07:02:01.982Z,2.70
2023-10-10T07:04:30.411Z,2.08
2023-10-10T07:07:02.537Z,2.92
2023-10-10T07:09:37.539Z,2.25
2023-10-10T07:12:12.211Z,2.22
2023-10-10T07:14:55.754Z,2.53
2023-10-10T07:17:28.872Z,2.30
2023-10-10T07:20:17.540Z,2.40
2023-10-10T07:22:46.601Z,2.42
2023-10-10T07:25:41.396Z,2.35
2023-10-10T07:28:15.378Z,1.95
2023-10-10T07:30:45.626Z,2.45
2023-10-10T07:33:15.013Z,1.70
2023-10-10T07:35:46.209Z,2.35
2023-10-10T07:38:17.032Z,1.35
2023-10-10T07:40:45.031Z,2.28
2023-10-10T07:43:14.105Z,1.60
2023-10-10T07:45:45.036Z,2.05
2023-10-10T07:48:13.328Z,2.72
2023-10-10T07:50:58.130Z,2.10
2023-10-10T07:53:35.311Z,2.65
2023-10-10T07:56:03.421Z,2.97
2023-10-10T07:58:53.751Z,1.80
2023-10-10T08:01:22.441Z,4.28
2023-10-10T08:03:51.262Z,3.13
2023-10-10T08:06:23.784Z,2.55
2023-10-10T08:09:11.655Z,2.20
2023-10-10T08:11:40.074Z,2.28
2023-10-10T08:14:10.050Z,2.75
2023-10-10T08:16:44.616Z,3.47
2023-10-10T08:19:12.902Z,2.55
2023-10-10T08:21:50.582Z,2.65
2023-10-10T08:24:21.616Z,2.50
2023-10-10T08:26:52.997Z,4.13
2023-10-10T08:29:27.554Z,2.88
2023-10-10T08:31:55.600Z,2.55
2023-10-10T08:34:26.023Z,2.90
2023-10-10T08:37:04.586Z,2.38
2023-10-10T08:39:40.747Z,2.47
2023-10-10T08:42:16.419Z,3.22
2023-10-10T08:44:50.457Z,2.90
2023-10-10T08:47:33.921Z,2.80
2023-10-10T08:50:02.538Z,3.25
2023-10-10T08:52:33.881Z,2.65
2023-10-10T08:55:03.066Z,2.97
2023-10-10T08:57:31.788Z,2.67
2023-10-10T09:00:00.739Z,2.95
2023-10-10T09:02:35.204Z,2.75
2023-10-10T09:07:34.126Z,3.08
2023-10-10T09:10:15.439Z,3.35
2023-10-10T09:12:54.698Z,2.85
2023-10-10T09:15:23.849Z,3.70
2023-10-10T09:18:00.030Z,3.25
2023-10-10T09:20:33.782Z,3.53
2023-10-10T09:23:13.528Z,3.53
2023-10-10T09:25:49.860Z,2.85
2023-10-10T09:28:18.294Z,3.25
2023-10-10T09:31:13.801Z,2.95
2023-10-10T09:33:47.115Z,3.22
2023-10-10T09:36:21.187Z,3.17
2023-10-10T09:38:55.900Z,3.35
2023-10-10T09:44:40.883Z,3.00
2023-10-10T09:47:10.476Z,2.28
2023-10-10T09:49:53.235Z,3.40
2023-10-10T09:52:41.956Z,2.95
2023-10-10T09:55:15.214Z,2.80
2023-10-10T09:58:00.148Z,2.80
2023-10-10T10:00:34.681Z,2.47
2023-10-10T10:03:24.231Z,2.00
2023-10-10T10:06:30.143Z,2.17
2023-10-10T10:09:19.263Z,2.28
2023-10-10T10:12:21.258Z,2.35
2023-10-10T10:14:56.013Z,2.88
2023-10-10T10:17:55.816Z,3.65
2023-10-10T10:20:51.591Z,2.30
2023-10-10T10:23:27.620Z,2.00
2023-10-10T10:26:28.353Z,1.92
2023-10-10T10:28:59.520Z,2.25
2023-10-10T10:31:38.510Z,2.05
2023-10-10T10:34:17.909Z,1.60
2023-10-10T10:36:55.683Z,1.90
2023-10-10T10:39:36.210Z,1.77
2023-10-10T10:42:17.151Z,1.55
2023-10-10T10:44:46.444Z,2.25
2023-10-10T10:47:36.740Z,1.90
2023-10-10T10:50:29.035Z,2.05
2023-10-10T10:53:05.948Z,2.65
2023-10-10T10:55:41.108Z,2.28
2023-10-10T10:58:35.372Z,1.73
2023-10-10T11:01:18.018Z,1.67
2023-10-10T11:03:46.592Z,2.42
2023-10-10T11:06:15.928Z,1.90
2023-10-10T11:11:26.809Z,2.63
2023-10-10T11:14:21.179Z,2.00
2023-10-10T11:16:57.881Z,2.65
2023-10-10T11:19:30.492Z,2.00
2023-10-10T11:22:06.886Z,2.05
2023-10-10T11:24:36.160Z,1.58
2023-10-10T11:27:13.057Z,2.17
2023-10-10T11:29:52.408Z,1.88
2023-10-10T11:32:26.415Z,1.80
2023-10-10T11:35:13.274Z,2.13
2023-10-10T11:37:45.539Z,2.13
2023-10-10T11:40:21.146Z,2.65
2023-10-10T11:42:51.049Z,2.10
2023-10-10T11:45:27.645Z,1.92
2023-10-10T11:48:06.789Z,2.05
2023-10-10T11:50:58.727Z,2.70
2023-10-10T11:53:29.170Z,5.25
2023-10-10T11:56:12.852Z,3.00
2023-10-10T11:58:40.978Z,2.67
2023-10-10T12:01:09.546Z,2.22
2023-10-10T12:03:41.645Z,2.08
2023-10-10T12:06:21.239Z,2.20
2023-10-10T12:08:50.538Z,2.00
2023-10-10T12:11:23.881Z,2.42
2023-10-10T12:13:53.973Z,2.65
2023-10-10T12:16:25.928Z,2.42
2023-10-10T12:18:55.581Z,3.70
2023-10-10T12:21:25.120Z,3.33
2023-10-10T12:24:00.504Z,2.42
2023-10-10T12:26:31.235Z,2.63
2023-10-10T12:28:59.814Z,2.45
2023-10-10T12:31:28.233Z,2.65
2023-10-10T12:33:56.185Z,2.78
2023-10-10T12:36:30.589Z,2.28
2023-10-10T12:39:06.152Z,2.10
2023-10-10T12:41:47.921Z,2.30
2023-10-10T12:44:16.573Z,2.10
2023-10-10T12:46:44.746Z,2.42
2023-10-10T12:49:13.224Z,2.33
2023-10-10T12:57:12.917Z,3.22
2023-10-10T12:59:41.126Z,1.98
2023-10-10T13:02:15.219Z,2.78
2023-10-10T13:04:48.232Z,3.33
2023-10-10T13:07:19.606Z,3.15
2023-10-10T13:09:48.273Z,5.35
2023-10-10T13:12:29.119Z,3.55
2023-10-10T13:17:52.049Z,4.00
2023-10-10T13:20:24.808Z,2.67
2023-10-10T13:22:52.993Z,3.17
2023-10-10T13:25:21.794Z,3.20
2023-10-10T13:27:53.970Z,2.40
2023-10-10T13:30:22.169Z,2.47
2023-10-10T13:32:50.312Z,2.45
2023-10-10T13:35:21.699Z,2.38
2023-10-10T13:38:10.175Z,2.70
2023-10-10T13:40:50.690Z,3.15
2023-10-10T13:43:19.251Z,2.30
2023-10-10T13:45:52.621Z,2.80
2023-10-10T13:48:23.734Z,2.28
2023-10-10T13:50:57.607Z,2.10
2023-10-10T13:53:25.748Z,2.20
2023-10-10T13:55:53.730Z,1.90
2023-10-10T13:58:21.807Z,2.35
2023-10-10T14:00:57.431Z,2.53
2023-10-10T14:03:36.828Z,3.63
2023-10-10T14:06:05.765Z,2.30
2023-10-10T14:08:34.404Z,2.60
2023-10-10T14:11:03.328Z,2.42
2023-10-10T14:13:31.770Z,3.00
2023-10-10T14:15:59.826Z,1.92
2023-10-10T14:18:44.889Z,2.45
2023-10-10T14:21:13.637Z,2.72
2023-10-10T14:26:14.550Z,2.47
2023-10-10T14:28:51.550Z,1.80
2023-10-10T14:31:24.755Z,2.30
2023-10-10T14:33:53.075Z,2.40
2023-10-10T14:36:22.338Z,3.45
2023-10-10T14:38:51.796Z,2.13
2023-10-10T14:41:26.853Z,3.08
2023-10-10T14:43:56.043Z,1.85
2023-10-10T14:46:28.830Z,2.58
2023-10-10T14:49:16.263Z,3.10
2023-10-10T14:51:52.006Z,3.22
2023-10-10T14:54:20.967Z,2.80
2023-10-10T14:56:51.595Z,4.90
2023-10-10T14:59:26.218Z,3.53
2023-10-10T15:01:54.587Z,15.35
2023-10-10T15:04:23.103Z,2.83
2023-10-10T15:06:55.979Z,4.30
2023-10-10T15:09:28.204Z,3.35
2023-10-10T15:12:01.454Z,2.75
2023-10-10T15:14:33.830Z,4.22
2023-10-10T15:17:06.414Z,4.35
2023-10-10T15:19:35.504Z,2.05
2023-10-10T15:22:04.398Z,2.75
2023-10-10T15:24:34.625Z,2.50
2023-10-10T15:27:02.880Z,3.88
2023-10-10T15:29:34.382Z,3.75
2023-10-10T15:32:05.001Z,2.78
2023-10-10T15:34:33.295Z,4.05
2023-10-10T15:37:13.395Z,4.45
2023-10-10T15:39:43.036Z,5.88
2023-10-10T15:42:12.801Z,5.38
2023-10-10T15:44:42.934Z,3.00
2023-10-10T15:47:11.775Z,3.15
2023-10-10T15:49:40.770Z,2.67
2023-10-10T15:52:09.485Z,2.60
2023-10-10T15:54:37.660Z,2.03
2023-10-10T15:57:07.584Z,2.40
2023-10-10T15:59:37.256Z,4.40
2023-10-10T16:02:11.274Z,4.75
2023-10-10T16:04:44.254Z,3.60
2023-10-10T16:07:13.053Z,4.43
2023-10-10T16:12:14.219Z,4.97
2023-10-10T16:14:42.766Z,5.22
2023-10-10T16:19:46.688Z,20.67
2023-10-10T16:22:15.049Z,27.52
2023-10-10T16:24:43.475Z,24.70
2023-10-10T16:27:11.583Z,27.45
2023-10-10T16:29:39.875Z,21.20
2023-10-10T16:32:09.923Z,12.52
2023-10-10T16:34:43.990Z,11.93
2023-10-10T16:37:15.850Z,6.97
2023-10-10T16:39:46.773Z,4.85
2023-10-10T16:42:25.110Z,2.92
2023-10-10T16:44:55.089Z,3.50
2023-10-10T16:47:24.236Z,4.63
2023-10-10T16:49:52.780Z,4.53
2023-10-10T16:52:21.661Z,6.43
2023-10-10T16:54:53.492Z,6.50
2023-10-10T16:57:26.087Z,7.93
2023-10-10T16:59:58.149Z,5.72
2023-10-10T17:02:30.488Z,5.43
2023-10-10T17:05:06.428Z,5.10
2023-10-10T17:07:35.185Z,4.25
2023-10-10T17:12:36.390Z,4.63
2023-10-10T17:15:06.438Z,5.00
2023-10-10T17:17:37.248Z,5.05
2023-10-10T17:20:06.635Z,3.75
2023-10-10T17:22:35.392Z,3.88
2023-10-10T17:25:04.702Z,11.38
2023-10-10T17:27:35.163Z,7.28
2023-10-10T17:30:06.128Z,7.22
2023-10-10T17:32:35.077Z,7.80
2023-10-10T17:35:06.695Z,11.45
2023-10-10T17:37:36.379Z,6.93
2023-10-10T17:40:12.133Z,11.35
2023-10-10T17:42:45.683Z,10.52
2023-10-10T17:45:14.564Z,12.27
2023-10-10T17:47:43.252Z,8.30
2023-10-10T17:50:13.090Z,6.45
2023-10-10T17:52:44.894Z,5.60
2023-10-10T17:55:15.228Z,9.23
2023-10-10T17:57:44.327Z,9.70
2023-10-10T18:00:15.741Z,9.65
2023-10-10T18:02:48.309Z,10.20
2023-10-10T18:05:18.207Z,7.47
2023-10-10T18:07:47.000Z,12.40
2023-10-10T18:10:16.040Z,11.40
2023-10-10T18:12:45.110Z,13.90
2023-10-10T18:15:14.197Z,16.50
2023-10-10T18:17:43.860Z,14.20
2023-10-10T18:20:21.002Z,8.30
2023-10-10T18:22:53.428Z,8.30
2023-10-10T18:25:25.168Z,6.53
2023-10-10T18:27:54.754Z,6.60
2023-10-10T18:30:24.048Z,5.57
2023-10-10T18:32:53.256Z,4.18
2023-10-10T18:35:28.438Z,5.43
2023-10-10T18:37:57.513Z,6.03
2023-10-10T18:40:27.552Z,5.03
2023-10-10T18:42:56.916Z,4.85
2023-10-10T18:45:27.446Z,6.03
2023-10-10T18:47:56.446Z,6.15
2023-10-10T18:50:25.036Z,6.53
2023-10-10T18:52:55.669Z,9.27
2023-10-10T18:55:31.240Z,6.50
2023-10-10T18:58:08.112Z,11.20
2023-10-10T19:00:38.112Z,10.05
2023-10-10T19:03:08.814Z,10.23
2023-10-10T19:05:37.946Z,9.73
2023-10-10T19:08:07.096Z,6.05
2023-10-10T19:10:39.802Z,6.35
2023-10-10T19:13:10.749Z,8.48
2023-10-10T19:15:39.544Z,34.20
2023-10-10T19:18:08.775Z,13.10
2023-10-10T19:20:38.488Z,9.10
2023-10-10T19:23:17.936Z,8.65
2023-10-10T19:25:49.428Z,10.65
2023-10-10T19:28:18.569Z,10.98
2023-10-10T19:30:47.487Z,5.47
2023-10-10T19:33:16.769Z,3.30
2023-10-10T19:35:45.865Z,4.10
2023-10-10T19:38:15.137Z,8.80
2023-10-10T19:40:45.575Z,9.48
2023-10-10T19:43:14.577Z,9.70
2023-10-10T19:45:43.513Z,6.68
2023-10-10T19:48:17.234Z,6.60
2023-10-10T19:50:49.118Z,7.55
2023-10-10T19:53:18.341Z,14.60
2023-10-10T19:55:50.941Z,11.52
2023-10-10T19:58:22.516Z,10.35
2023-10-10T20:00:51.360Z,6.85
2023-10-10T20:03:23.775Z,10.13
2023-10-10T20:05:54.297Z,8.55
2023-10-10T20:08:22.969Z,7.50
2023-10-10T20:10:52.279Z,8.05
2023-10-10T20:13:22.282Z,7.55
2023-10-10T20:15:54.228Z,6.40
2023-10-10T20:18:22.909Z,5.95
2023-10-10T20:23:24.115Z,5.53
2023-10-10T20:25:52.624Z,7.85
2023-10-10T20:28:20.843Z,6.93
2023-10-10T20:30:49.113Z,8.05
2023-10-10T20:33:17.862Z,5.75
2023-10-10T20:35:47.170Z,5.90
2023-10-10T20:38:21.169Z,7.57
2023-10-10T20:40:49.458Z,8.85
2023-10-10T20:43:17.607Z,6.72
2023-10-10T20:45:45.632Z,6.72
2023-10-10T20:48:23.289Z,5.72
2023-10-10T20:50:51.663Z,8.80
2023-10-10T20:53:21.129Z,9.48
2023-10-10T20:55:51.298Z,7.95
2023-10-10T20:58:20.173Z,9.13
2023-10-10T21:03:16.699Z,6.13
2023-10-10T21:05:44.871Z,8.77
2023-10-10T21:08:13.250Z,7.80
2023-10-10T21:10:41.887Z,5.78
2023-10-10T21:15:38.007Z,4.70
2023-10-10T21:18:09.522Z,4.47
2023-10-10T21:20:56.557Z,4.65
2023-10-10T21:23:28.593Z,4.82
2023-10-10T21:25:56.662Z,4.63
2023-10-10T21:28:25.902Z,5.10
2023-10-10T21:30:54.173Z,5.63
2023-10-10T21:33:22.542Z,5.18
2023-10-10T21:35:51.135Z,4.90
2023-10-10T21:38:25.223Z,4.38
2023-10-10T21:41:03.429Z,4.03
2023-10-10T21:43:31.882Z,5.75
2023-10-10T21:45:59.869Z,4.70
2023-10-10T21:48:28.012Z,5.88
2023-10-10T21:50:59.498Z,6.28
2023-10-10T21:53:29.901Z,5.93
2023-10-10T21:56:01.053Z,5.10
2023-10-10T21:58:29.240Z,6.15
2023-10-10T22:00:57.148Z,7.32
2023-10-10T22:03:26.950Z,5.07
2023-10-10T22:05:55.166Z,5.15
2023-10-10T22:08:27.279Z,5.45
2023-10-10T22:11:01.169Z,4.13
2023-10-10T22:13:30.638Z,4.07
2023-10-10T22:15:58.737Z,4.90
2023-10-10T22:18:26.877Z,5.45
2023-10-10T22:20:57.498Z,6.18
2023-10-10T22:23:27.855Z,5.28
2023-10-10T22:26:03.064Z,4.78
2023-10-10T22:28:33.084Z,4.88
2023-10-10T22:31:01.092Z,6.25
2023-10-10T22:33:31.248Z,4.70
2023-10-10T22:36:02.138Z,7.05
2023-10-10T22:38:30.239Z,4.93
2023-10-10T22:40:59.265Z,4.68
2023-10-10T22:43:27.658Z,4.72
2023-10-10T22:45:55.747Z,4.25
2023-10-10T22:48:23.987Z,3.55
2023-10-10T22:50:54.570Z,3.05
2023-10-10T22:53:22.677Z,4.50
2023-10-10T22:55:50.563Z,4.55
2023-10-10T22:58:21.766Z,4.47
2023-10-10T23:00:49.999Z,3.78
2023-10-10T23:03:20.887Z,3.97
2023-10-10T23:05:49.168Z,2.80
2023-10-10T23:08:17.487Z,3.58
2023-10-10T23:10:49.503Z,3.83
2023-10-10T23:13:18.023Z,3.35
2023-10-10T23:15:50.265Z,5.13
2023-10-10T23:18:18.988Z,4.90
2023-10-10T23:20:47.662Z,4.85
2023-10-10T23:23:17.480Z,3.03
2023-10-10T23:25:48.655Z,3.60
2023-10-10T23:28:16.681Z,4.53
2023-10-10T23:30:44.732Z,4.95
2023-10-10T23:33:14.235Z,3.78
2023-10-10T23:35:42.854Z,4.13
2023-10-10T23:38:12.111Z,3.67
2023-10-10T23:43:10.456Z,4.85
2023-10-10T23:45:44.527Z,3.67
2023-10-10T23:48:17.273Z,5.15
2023-10-10T23:50:46.774Z,5.28
2023-10-10T23:53:15.468Z,6.63
2023-10-10T23:55:48.383Z,6.20
2023-10-10T23:58:17.004Z,6.90
